Time;durP1;ratioP1;P1;durP2;ratioP2;P2;SDS_P1;SDS_P2;PMS_P1;PMS_P2;Temp;Humidity;BMP_temperature;BMP_pressure;BME280_temperature;BME280_humidity;BME280_pressure;Samples;Min_cycle;Max_cycle;Signal;HPM_P1;HPM_P2
2023/11/19 00:02:08;;;;;;;11.05;7.38;;;3.90;99.90;;;;;;5012901;28;20040;-59
2023/11/19 00:04:37;;;;;;;12.20;7.25;;;3.90;99.90;;;;;;5018064;28;20142;-59
2023/11/19 00:07:05;;;;;;;14.15;8.52;;;3.90;99.90;;;;;;5022002;28;20029;-59
2023/11/19 00:09:31;;;;;;;12.32;8.25;;;3.80;99.90;;;;;;5021358;28;20029;-60
2023/11/19 00:11:57;;;;;;;14.55;8.02;;;3.80;99.90;;;;;;5023597;28;20234;-59
2023/11/19 00:14:24;;;;;;;13.20;8.43;;;3.80;99.90;;;;;;5023393;28;20101;-60
2023/11/19 00:16:51;;;;;;;12.07;8.23;;;3.90;99.90;;;;;;5025835;28;20025;-59
2023/11/19 00:19:16;;;;;;;13.30;7.72;;;3.80;99.90;;;;;;5014307;28;20053;-58
2023/11/19 00:21:42;;;;;;;15.13;9.43;;;3.80;99.90;;;;;;5019862;28;20386;-57
2023/11/19 00:24:08;;;;;;;10.60;7.55;;;3.80;99.90;;;;;;5020701;28;20037;-59
2023/11/19 00:26:33;;;;;;;15.07;8.68;;;3.80;99.90;;;;;;5022736;28;20132;-59
2023/11/19 00:28:59;;;;;;;10.70;7.43;;;3.80;99.90;;;;;;5028165;28;20021;-59
2023/11/19 00:31:27;;;;;;;10.93;7.00;;;3.80;99.90;;;;;;5025093;28;20296;-59
2023/11/19 00:33:53;;;;;;;12.13;8.55;;;3.80;99.90;;;;;;5021659;28;20199;-59
2023/11/19 00:36:19;;;;;;;10.13;7.03;;;3.80;99.90;;;;;;5010877;28;20567;-59
2023/11/19 00:38:44;;;;;;;13.80;7.53;;;3.80;99.90;;;;;;5022820;28;20044;-58
2023/11/19 00:41:10;;;;;;;11.80;7.32;;;3.80;99.90;;;;;;5022923;28;20436;-59
2023/11/19 00:43:36;;;;;;;10.50;7.72;;;3.80;99.90;;;;;;5024721;28;20022;-59
2023/11/19 00:46:04;;;;;;;11.32;7.97;;;3.80;99.90;;;;;;5017384;28;23157;-59
2023/11/19 00:48:29;;;;;;;10.57;6.38;;;3.80;99.90;;;;;;5024401;28;20036;-59
2023/11/19 00:50:55;;;;;;;9.98;6.40;;;3.80;99.90;;;;;;5027811;28;20455;-59
2023/11/19 00:53:20;;;;;;;9.35;6.95;;;3.80;99.90;;;;;;5022259;28;20045;-59
2023/11/19 00:55:46;;;;;;;9.27;6.60;;;3.80;99.90;;;;;;5014236;28;20041;-59
2023/11/19 00:58:11;;;;;;;12.25;7.60;;;3.80;99.90;;;;;;5016998;28;20120;-59
2023/11/19 01:00:36;;;;;;;9.73;6.72;;;3.80;99.90;;;;;;5018614;28;20312;-59
2023/11/19 01:03:02;;;;;;;11.65;7.53;;;3.80;99.90;;;;;;5017084;28;20109;-59
2023/11/19 01:05:28;;;;;;;10.55;7.32;;;3.80;99.90;;;;;;5020676;28;20033;-59
2023/11/19 01:07:54;;;;;;;11.30;7.18;;;3.80;99.90;;;;;;5017173;28;20429;-59
2023/11/19 01:10:20;;;;;;;14.02;8.07;;;3.80;99.90;;;;;;5020339;28;20408;-60
2023/11/19 01:12:46;;;;;;;12.18;7.43;;;3.80;99.90;;;;;;5019947;28;20032;-58
2023/11/19 01:15:12;;;;;;;11.90;7.40;;;3.80;99.90;;;;;;5019211;28;20104;-59
2023/11/19 01:17:38;;;;;;;13.13;7.70;;;3.80;99.90;;;;;;5014567;28;20025;-59
2023/11/19 01:20:06;;;;;;;10.50;7.43;;;3.80;99.90;;;;;;5014934;28;20563;-58
2023/11/19 01:22:31;;;;;;;12.55;6.82;;;3.80;99.90;;;;;;5025630;28;20063;-58
2023/11/19 01:24:58;;;;;;;9.82;6.97;;;3.80;99.90;;;;;;5020242;28;20045;-59
2023/11/19 01:27:24;;;;;;;16.27;7.43;;;3.80;99.90;;;;;;5025400;28;20567;-59
2023/11/19 01:29:50;;;;;;;9.50;6.43;;;3.80;99.90;;;;;;5021229;28;20021;-59
2023/11/19 01:32:15;;;;;;;11.80;7.05;;;3.80;99.90;;;;;;5018371;28;20119;-59
2023/11/19 01:34:41;;;;;;;10.85;7.28;;;3.80;99.90;;;;;;5021744;28;20037;-59
2023/11/19 01:37:09;;;;;;;9.32;6.20;;;3.80;99.90;;;;;;5014311;28;20358;-59
2023/11/19 01:39:34;;;;;;;11.57;7.22;;;3.80;99.90;;;;;;5015550;28;20042;-59
2023/11/19 01:42:00;;;;;;;8.27;5.88;;;3.80;99.90;;;;;;5020818;28;20063;-59
2023/11/19 01:44:25;;;;;;;11.20;6.97;;;3.80;99.90;;;;;;5023965;28;20049;-59
2023/11/19 01:46:52;;;;;;;12.43;7.40;;;3.80;99.90;;;;;;5021429;28;20056;-60
2023/11/19 01:49:18;;;;;;;9.38;6.35;;;3.80;99.90;;;;;;5018909;28;20113;-59
2023/11/19 01:51:45;;;;;;;11.77;6.63;;;3.90;99.90;;;;;;5019841;28;20524;-59
2023/11/19 01:54:11;;;;;;;9.95;6.80;;;3.80;99.90;;;;;;5020753;28;20029;-59
2023/11/19 01:56:40;;;;;;;11.25;6.80;;;3.90;99.90;;;;;;5020993;28;20097;-73
2023/11/19 01:59:06;;;;;;;11.63;7.60;;;3.90;99.90;;;;;;5020485;28;20120;-67
2023/11/19 02:01:34;;;;;;;11.40;7.82;;;3.90;99.90;;;;;;5021474;28;20017;-67
2023/11/19 02:04:01;;;;;;;8.70;6.90;;;3.90;99.90;;;;;;5023878;28;20497;-67
2023/11/19 02:06:28;;;;;;;9.10;6.05;;;3.90;99.90;;;;;;5022578;28;20500;-67
2023/11/19 02:08:53;;;;;;;9.57;6.30;;;3.90;99.90;;;;;;5021593;28;20100;-67
2023/11/19 02:11:19;;;;;;;12.05;7.93;;;3.90;99.90;;;;;;5019802;28;20100;-67
2023/11/19 02:13:44;;;;;;;12.48;8.35;;;3.90;99.90;;;;;;5020550;28;20076;-67
2023/11/19 02:16:10;;;;;;;11.23;6.45;;;3.90;99.90;;;;;;5020465;28;20500;-66
2023/11/19 02:18:36;;;;;;;11.63;7.32;;;3.90;99.90;;;;;;5020290;28;20541;-66
2023/11/19 02:21:01;;;;;;;9.77;6.68;;;3.90;99.90;;;;;;5020491;28;20048;-64
2023/11/19 02:23:28;;;;;;;12.18;7.18;;;4.00;99.90;;;;;;5018013;28;20025;-66
2023/11/19 02:26:18;;;;;;;14.35;7.53;;;4.00;99.90;;;;;;5020182;28;20045;-66
2023/11/19 02:28:44;;;;;;;10.55;7.25;;;4.00;99.90;;;;;;5015682;28;20033;-66
2023/11/19 02:31:10;;;;;;;11.32;7.57;;;4.00;99.90;;;;;;5022504;28;20036;-66
2023/11/19 02:33:39;;;;;;;13.75;8.50;;;4.00;99.90;;;;;;5021886;28;20033;-68
2023/11/19 02:36:06;;;;;;;10.35;7.47;;;4.00;99.90;;;;;;5016106;28;20071;-66
2023/11/19 02:38:32;;;;;;;12.73;7.38;;;4.00;99.90;;;;;;5019869;28;20124;-66
2023/11/19 02:40:58;;;;;;;13.40;7.70;;;4.10;99.90;;;;;;5023961;28;20624;-66
2023/11/19 02:43:24;;;;;;;14.43;8.75;;;4.00;99.90;;;;;;5020066;28;20030;-66
2023/11/19 02:45:50;;;;;;;16.13;7.78;;;4.00;99.90;;;;;;5020668;28;20128;-66
2023/11/19 02:48:16;;;;;;;10.68;7.47;;;4.00;99.90;;;;;;5022995;28;20045;-66
2023/11/19 02:50:44;;;;;;;14.75;9.07;;;4.00;99.90;;;;;;5021639;28;20021;-66
2023/11/19 02:53:10;;;;;;;15.48;9.48;;;4.00;99.90;;;;;;5021942;28;20021;-66
2023/11/19 02:55:38;;;;;;;15.18;8.68;;;4.00;99.90;;;;;;5019983;28;20448;-67
2023/11/19 02:58:11;;;;;;;12.27;8.05;;;4.00;99.90;;;;;;5019649;28;20100;-66
2023/11/19 03:00:47;;;;;;;12.07;8.15;;;4.00;99.90;;;;;;5017544;28;20031;-66
2023/11/19 03:03:20;;;;;;;11.82;7.32;;;4.00;99.90;;;;;;5015263;28;20244;-65
2023/11/19 03:05:49;;;;;;;14.68;9.43;;;4.00;99.90;;;;;;5024116;28;20043;-66
2023/11/19 03:08:16;;;;;;;12.05;8.07;;;4.00;99.90;;;;;;5021586;28;20032;-67
2023/11/19 03:10:42;;;;;;;11.20;6.80;;;4.00;99.90;;;;;;5019939;28;20024;-66
2023/11/19 03:13:13;;;;;;;12.35;7.95;;;4.00;99.90;;;;;;5019806;28;20033;-65
2023/11/19 03:15:39;;;;;;;12.40;7.75;;;4.00;99.90;;;;;;5018308;28;20029;-65
2023/11/19 03:18:04;;;;;;;13.18;8.40;;;4.00;99.90;;;;;;5019633;28;20033;-66
2023/11/19 03:20:30;;;;;;;14.68;8.38;;;4.10;99.90;;;;;;5020397;28;20590;-66
2023/11/19 03:22:57;;;;;;;10.48;6.75;;;4.10;99.90;;;;;;5017053;28;20029;-66
2023/11/19 03:25:25;;;;;;;15.10;8.70;;;4.10;99.90;;;;;;5027162;28;20037;-65
2023/11/19 03:27:51;;;;;;;13.88;7.65;;;4.10;99.90;;;;;;5021364;28;20108;-67
2023/11/19 03:30:17;;;;;;;13.20;8.25;;;4.10;99.90;;;;;;5019559;28;20160;-66
2023/11/19 03:32:43;;;;;;;12.02;7.35;;;4.10;99.90;;;;;;5015603;28;20033;-67
2023/11/19 03:35:09;;;;;;;12.15;9.05;;;4.10;99.90;;;;;;5019254;28;20029;-66
2023/11/19 03:37:35;;;;;;;15.20;9.32;;;4.10;99.90;;;;;;5013598;28;20060;-66
2023/11/19 03:40:01;;;;;;;13.45;8.18;;;4.20;99.90;;;;;;5019661;28;20141;-66
2023/11/19 03:42:26;;;;;;;13.10;8.30;;;4.20;99.90;;;;;;5029706;28;20703;-67
2023/11/19 03:44:53;;;;;;;13.10;8.65;;;4.20;99.90;;;;;;5019633;28;20056;-66
2023/11/19 03:47:19;;;;;;;14.25;8.40;;;4.20;99.90;;;;;;5019259;28;20030;-66
2023/11/19 03:49:51;;;;;;;11.73;6.93;;;4.30;99.90;;;;;;5026337;28;20047;-66
2023/11/19 03:52:17;;;;;;;11.73;7.75;;;4.30;99.90;;;;;;5027131;28;20438;-66
2023/11/19 03:54:44;;;;;;;10.48;7.03;;;4.30;99.90;;;;;;5023099;28;20100;-67
2023/11/19 03:57:12;;;;;;;10.32;6.82;;;4.30;99.90;;;;;;5027025;28;20029;-66
2023/11/19 03:59:39;;;;;;;11.23;7.20;;;4.30;99.90;;;;;;5025778;28;20029;-66
2023/11/19 04:02:04;;;;;;;10.90;7.47;;;4.30;99.90;;;;;;5022726;28;20393;-66
2023/11/19 04:04:30;;;;;;;11.13;7.07;;;4.40;99.90;;;;;;5024807;28;20025;-66
2023/11/19 04:06:56;;;;;;;11.10;7.15;;;4.30;99.90;;;;;;5026868;28;20171;-66
2023/11/19 04:09:21;;;;;;;11.77;7.60;;;4.40;99.90;;;;;;5022835;28;20518;-66
2023/11/19 04:11:47;;;;;;;10.30;7.00;;;4.40;99.90;;;;;;5019349;28;20080;-67
2023/11/19 04:14:14;;;;;;;12.40;7.32;;;4.40;99.90;;;;;;5026647;28;20036;-66
2023/11/19 04:16:39;;;;;;;10.05;6.53;;;4.40;99.90;;;;;;5022619;28;20375;-68
2023/11/19 04:19:06;;;;;;;10.77;6.47;;;4.30;99.90;;;;;;5022521;28;20033;-66
2023/11/19 04:21:32;;;;;;;9.85;7.45;;;4.30;99.90;;;;;;5023165;28;20026;-67
2023/11/19 04:23:57;;;;;;;11.43;7.00;;;4.30;99.90;;;;;;5024856;28;20116;-67
2023/11/19 04:26:23;;;;;;;11.00;6.47;;;4.30;99.90;;;;;;5019529;28;20026;-67
2023/11/19 04:28:49;;;;;;;11.63;6.57;;;4.30;99.90;;;;;;5023832;28;20025;-67
2023/11/19 04:31:16;;;;;;;10.45;6.32;;;4.30;99.90;;;;;;5021965;28;20028;-66
2023/11/19 04:33:41;;;;;;;11.40;7.45;;;4.30;99.90;;;;;;5018725;28;20429;-66
2023/11/19 04:36:07;;;;;;;10.77;6.60;;;4.30;99.90;;;;;;5014014;28;20018;-66
2023/11/19 04:38:33;;;;;;;11.07;6.82;;;4.30;99.90;;;;;;5016442;28;20536;-68
2023/11/19 04:40:58;;;;;;;10.65;6.93;;;4.30;99.90;;;;;;5018390;28;20026;-68
2023/11/19 04:43:24;;;;;;;8.48;6.15;;;4.30;99.90;;;;;;5016751;28;20030;-67
2023/11/19 04:45:49;;;;;;;11.77;6.85;;;4.30;99.90;;;;;;5016110;28;20032;-68
2023/11/19 04:48:15;;;;;;;12.68;7.03;;;4.30;99.90;;;;;;5014173;28;20033;-66
2023/11/19 04:50:40;;;;;;;9.75;6.22;;;4.20;99.90;;;;;;5020402;28;20056;-67
2023/11/19 04:53:06;;;;;;;15.05;7.88;;;4.20;99.90;;;;;;5014119;28;20036;-66
2023/11/19 04:55:31;;;;;;;10.18;7.07;;;4.20;99.90;;;;;;5013189;28;20030;-66
2023/11/19 04:57:57;;;;;;;12.45;7.53;;;4.20;99.90;;;;;;5013417;28;20105;-67
2023/11/19 05:00:22;;;;;;;12.65;7.65;;;4.20;99.90;;;;;;5019400;28;20053;-66
2023/11/19 05:02:48;;;;;;;12.23;7.47;;;4.20;99.90;;;;;;5017328;28;20022;-67
2023/11/19 05:05:16;;;;;;;17.13;8.50;;;4.20;99.90;;;;;;5012048;28;20457;-67
2023/11/19 05:07:41;;;;;;;10.25;6.80;;;4.20;99.90;;;;;;5014929;28;20026;-66
2023/11/19 05:10:07;;;;;;;10.77;7.20;;;4.20;99.90;;;;;;5015867;28;20486;-66
2023/11/19 05:12:33;;;;;;;11.27;6.88;;;4.20;99.90;;;;;;5015518;28;20017;-66
2023/11/19 05:15:00;;;;;;;13.30;7.68;;;4.20;99.90;;;;;;5010920;28;20032;-67
2023/11/19 05:17:25;;;;;;;12.80;7.88;;;4.20;99.90;;;;;;5015881;28;20025;-67
2023/11/19 05:19:51;;;;;;;11.35;8.43;;;4.20;99.90;;;;;;5011874;28;20413;-67
2023/11/19 05:22:17;;;;;;;14.48;8.57;;;4.20;99.90;;;;;;5009452;28;20038;-66
2023/11/19 05:24:42;;;;;;;11.65;6.75;;;4.20;99.90;;;;;;5021874;28;20033;-67
2023/11/19 05:27:08;;;;;;;13.45;7.95;;;4.20;99.90;;;;;;5008907;28;20026;-67
2023/11/19 05:29:34;;;;;;;13.15;7.85;;;4.20;99.90;;;;;;5010203;28;20579;-67
2023/11/19 05:31:59;;;;;;;13.55;8.82;;;4.20;99.90;;;;;;5010929;28;20037;-68
2023/11/19 05:34:25;;;;;;;16.35;9.70;;;4.10;99.90;;;;;;5005169;28;20045;-67
2023/11/19 05:36:51;;;;;;;16.23;9.05;;;4.10;99.90;;;;;;5010274;28;20053;-66
2023/11/19 05:39:18;;;;;;;13.88;8.80;;;4.10;99.90;;;;;;5005997;28;20037;-67
2023/11/19 05:41:44;;;;;;;14.45;9.15;;;4.10;99.90;;;;;;5017439;28;20038;-68
2023/11/19 05:44:09;;;;;;;14.32;9.45;;;4.10;99.90;;;;;;5021218;28;20040;-67
2023/11/19 05:46:40;;;;;;;14.02;8.40;;;4.10;99.90;;;;;;5016317;28;20030;-67
2023/11/19 05:49:05;;;;;;;13.10;8.35;;;4.10;99.90;;;;;;5020409;28;20048;-65
2023/11/19 05:51:31;;;;;;;13.52;8.88;;;4.10;99.90;;;;;;5012858;28;20062;-68
2023/11/19 05:53:57;;;;;;;16.52;10.15;;;4.10;99.90;;;;;;5015627;28;20428;-66
2023/11/19 05:56:23;;;;;;;14.30;9.55;;;4.10;99.90;;;;;;5027879;28;20033;-68
2023/11/19 05:58:49;;;;;;;11.52;8.07;;;4.10;99.90;;;;;;5019382;28;20108;-66
2023/11/19 06:01:14;;;;;;;14.70;8.80;;;4.10;99.90;;;;;;5019763;28;20045;-66
2023/11/19 06:03:40;;;;;;;16.02;10.40;;;4.10;99.90;;;;;;5016450;28;20033;-67
2023/11/19 06:06:06;;;;;;;19.85;10.90;;;4.10;99.90;;;;;;5008736;28;20034;-65
2023/11/19 06:08:31;;;;;;;18.00;9.60;;;4.10;99.90;;;;;;5012256;28;20139;-66
2023/11/19 06:10:57;;;;;;;18.15;9.18;;;4.10;99.90;;;;;;5006869;28;20041;-66
2023/11/19 06:13:24;;;;;;;16.05;10.43;;;4.10;99.90;;;;;;5005051;28;20493;-66
2023/11/19 06:15:50;;;;;;;19.83;10.30;;;4.10;99.90;;;;;;5011783;28;20025;-65
2023/11/19 06:18:16;;;;;;;19.20;10.70;;;4.10;99.90;;;;;;5013669;28;20033;-65
2023/11/19 06:20:41;;;;;;;17.77;9.27;;;4.10;99.90;;;;;;5010435;28;20452;-65
2023/11/19 06:23:07;;;;;;;13.02;8.98;;;4.10;99.90;;;;;;5005920;28;20030;-65
2023/11/19 06:25:35;;;;;;;13.15;7.80;;;4.10;99.90;;;;;;5009341;28;20155;-64
2023/11/19 06:28:00;;;;;;;13.93;9.15;;;4.10;99.90;;;;;;5015573;28;20021;-64
2023/11/19 06:30:28;;;;;;;13.50;8.30;;;4.10;99.90;;;;;;5012589;28;20064;-65
2023/11/19 06:32:53;;;;;;;16.60;9.88;;;4.10;99.90;;;;;;5008893;28;20509;-66
2023/11/19 06:35:19;;;;;;;15.02;10.07;;;4.10;99.90;;;;;;5007984;28;20045;-66
2023/11/19 06:37:44;;;;;;;15.95;9.65;;;4.20;99.90;;;;;;5011490;28;20045;-66
2023/11/19 06:40:12;;;;;;;13.02;8.05;;;4.20;99.90;;;;;;5012249;28;20061;-66
2023/11/19 06:42:39;;;;;;;17.45;8.88;;;4.20;99.90;;;;;;5014946;28;20050;-67
2023/11/19 06:45:06;;;;;;;13.82;8.85;;;4.20;99.90;;;;;;5014141;28;20023;-65
2023/11/19 06:47:31;;;;;;;14.73;8.65;;;4.30;99.90;;;;;;5020345;28;20028;-66
2023/11/19 06:49:58;;;;;;;11.27;7.38;;;4.20;99.90;;;;;;5021254;28;20036;-66
2023/11/19 06:52:24;;;;;;;10.73;6.80;;;4.30;99.90;;;;;;5018467;28;20439;-66
2023/11/19 06:54:49;;;;;;;12.43;8.43;;;4.20;99.90;;;;;;5007842;28;20080;-66
2023/11/19 06:57:15;;;;;;;12.73;8.35;;;4.30;99.90;;;;;;5003082;28;20049;-66
2023/11/19 06:59:40;;;;;;;8.82;6.15;;;4.30;99.90;;;;;;5015067;28;20128;-66
2023/11/19 07:02:06;;;;;;;12.02;7.60;;;4.30;99.90;;;;;;5008399;28;20022;-66
2023/11/19 07:04:33;;;;;;;10.60;7.30;;;4.30;99.90;;;;;;5014404;28;20033;-67
2023/11/19 07:06:59;;;;;;;12.77;7.88;;;4.40;99.90;;;;;;5020006;28;20092;-67
2023/11/19 07:09:26;;;;;;;13.10;8.52;;;4.40;99.90;;;;;;5015036;28;20029;-66
2023/11/19 07:11:52;;;;;;;11.90;7.38;;;4.30;99.90;;;;;;5013578;28;20026;-67
2023/11/19 07:14:18;;;;;;;9.25;6.97;;;4.40;99.90;;;;;;5012112;28;20044;-66
2023/11/19 07:16:44;;;;;;;11.13;8.38;;;4.40;99.90;;;;;;5004808;28;20105;-65
2023/11/19 07:19:09;;;;;;;12.30;7.63;;;4.40;99.90;;;;;;5023241;28;20025;-67
2023/11/19 07:21:39;;;;;;;11.48;6.80;;;4.50;99.90;;;;;;5014136;28;20033;-66
2023/11/19 07:24:05;;;;;;;9.98;6.47;;;4.40;99.90;;;;;;5015251;28;20037;-65
2023/11/19 07:26:31;;;;;;;10.75;6.60;;;4.50;99.90;;;;;;5008855;28;20037;-66
2023/11/19 07:28:56;;;;;;;8.05;6.03;;;4.50;99.90;;;;;;5014023;28;20025;-66
2023/11/19 07:31:23;;;;;;;8.30;6.35;;;4.50;99.90;;;;;;5011886;28;20677;-65
2023/11/19 07:33:49;;;;;;;9.27;5.13;;;4.50;99.90;;;;;;5008011;28;20037;-66
2023/11/19 07:36:14;;;;;;;6.90;4.65;;;4.60;99.90;;;;;;5006086;28;20034;-66
2023/11/19 07:38:40;;;;;;;7.57;4.38;;;4.60;99.90;;;;;;5015739;28;20040;-68
2023/11/19 07:41:06;;;;;;;8.85;5.53;;;4.60;99.90;;;;;;5007436;28;20103;-66
2023/11/19 07:43:33;;;;;;;10.55;5.50;;;4.70;99.90;;;;;;5006017;28;20128;-66
2023/11/19 07:45:59;;;;;;;11.00;6.63;;;4.70;99.90;;;;;;5018096;28;20017;-66
2023/11/19 07:48:25;;;;;;;12.05;6.00;;;4.80;99.90;;;;;;5014983;28;20753;-66
2023/11/19 07:50:52;;;;;;;8.85;5.35;;;4.80;99.90;;;;;;5021700;28;20128;-67
2023/11/19 07:53:18;;;;;;;8.60;4.80;;;4.80;99.90;;;;;;5015462;28;20766;-67
2023/11/19 07:55:44;;;;;;;9.75;5.63;;;4.80;99.90;;;;;;5012712;28;20079;-67
2023/11/19 07:58:13;;;;;;;11.80;5.72;;;4.80;99.90;;;;;;5011995;28;20581;-67
2023/11/19 08:00:38;;;;;;;10.40;4.75;;;4.80;99.90;;;;;;5014575;28;20060;-62
2023/11/19 08:03:04;;;;;;;12.68;5.28;;;4.80;99.90;;;;;;5017862;28;20120;-58
2023/11/19 08:05:30;;;;;;;10.48;5.25;;;4.90;99.90;;;;;;5003395;28;20026;-59
2023/11/19 08:07:56;;;;;;;8.93;4.60;;;4.90;99.90;;;;;;5007857;28;20029;-60
2023/11/19 08:10:22;;;;;;;7.03;4.03;;;4.90;99.90;;;;;;5008874;28;20026;-59
2023/11/19 08:12:48;;;;;;;9.18;5.60;;;4.90;99.90;;;;;;5017737;28;20022;-60
2023/11/19 08:15:13;;;;;;;6.70;4.35;;;5.00;99.90;;;;;;5017301;28;20033;-60
2023/11/19 08:17:39;;;;;;;9.80;5.00;;;5.00;99.90;;;;;;5012150;28;20092;-59
2023/11/19 08:20:07;;;;;;;5.65;3.67;;;5.10;99.90;;;;;;5004404;28;20736;-59
2023/11/19 08:22:33;;;;;;;8.00;4.40;;;5.10;99.90;;;;;;5006158;28;20133;-60
2023/11/19 08:24:58;;;;;;;6.43;3.38;;;5.10;99.90;;;;;;5028176;28;20148;-59
2023/11/19 08:27:26;;;;;;;4.07;3.03;;;5.10;99.90;;;;;;5014736;28;20034;-60
2023/11/19 08:29:56;;;;;;;6.55;4.22;;;5.20;99.90;;;;;;5020431;28;20029;-60
2023/11/19 08:32:25;;;;;;;4.78;3.63;;;5.20;99.90;;;;;;5021224;28;20450;-60
2023/11/19 08:34:51;;;;;;;7.47;3.92;;;5.30;99.90;;;;;;5007952;28;20035;-60
2023/11/19 08:37:20;;;;;;;7.47;4.35;;;5.30;99.90;;;;;;5019970;28;20124;-58
2023/11/19 08:39:46;;;;;;;7.10;3.40;;;5.30;99.90;;;;;;5012419;28;20022;-59
2023/11/19 08:42:12;;;;;;;5.03;3.95;;;5.30;99.90;;;;;;5017678;28;20029;-59
2023/11/19 08:44:37;;;;;;;6.18;4.05;;;5.40;99.90;;;;;;5019256;28;20026;-60
2023/11/19 08:47:04;;;;;;;6.22;3.30;;;5.40;99.90;;;;;;5021563;28;20440;-61
2023/11/19 08:49:29;;;;;;;7.43;3.78;;;5.40;99.90;;;;;;5019375;28;20032;-60
2023/11/19 08:51:54;;;;;;;5.95;3.45;;;5.50;99.90;;;;;;5017420;28;20029;-59
2023/11/19 08:54:21;;;;;;;5.00;3.70;;;5.60;99.90;;;;;;5014491;28;20034;-59
2023/11/19 08:56:46;;;;;;;4.65;3.55;;;5.60;99.90;;;;;;5022897;28;20028;-59
2023/11/19 08:59:12;;;;;;;4.50;3.40;;;5.70;99.90;;;;;;5012612;28;20021;-59
2023/11/19 09:01:38;;;;;;;4.88;3.50;;;5.70;99.90;;;;;;5016356;28;20029;-60
2023/11/19 09:04:04;;;;;;;6.47;3.55;;;5.80;99.90;;;;;;5014171;28;20029;-59
2023/11/19 09:06:30;;;;;;;4.13;3.38;;;5.80;99.90;;;;;;5016172;28;20025;-60
2023/11/19 09:09:00;;;;;;;5.60;4.07;;;5.90;99.90;;;;;;5017136;28;20026;-61
2023/11/19 09:11:25;;;;;;;5.18;3.13;;;5.90;99.90;;;;;;5016425;28;20426;-59
2023/11/19 09:13:51;;;;;;;6.55;3.50;;;6.00;99.90;;;;;;5016775;28;20138;-58
2023/11/19 09:16:16;;;;;;;4.97;2.92;;;6.00;99.90;;;;;;5019052;28;20039;-58
2023/11/19 09:18:42;;;;;;;5.90;3.97;;;6.00;99.90;;;;;;5019399;28;20037;-58
2023/11/19 09:21:07;;;;;;;4.30;3.20;;;6.20;99.90;;;;;;5019196;28;20025;-59
2023/11/19 09:23:38;;;;;;;5.78;4.05;;;6.20;99.90;;;;;;5016159;28;20037;-58
2023/11/19 09:26:10;;;;;;;8.00;3.20;;;6.30;99.90;;;;;;5016059;28;20025;-57
2023/11/19 09:28:36;;;;;;;5.63;3.72;;;6.40;99.90;;;;;;5013583;28;20033;-59
2023/11/19 09:31:04;;;;;;;5.35;3.60;;;6.40;99.90;;;;;;5013226;28;20199;-58
2023/11/19 09:33:30;;;;;;;5.13;3.58;;;6.50;99.90;;;;;;5015661;28;20026;-58
2023/11/19 09:35:55;;;;;;;4.90;3.15;;;6.50;99.90;;;;;;5020773;28;20143;-59
2023/11/19 09:38:21;;;;;;;7.22;4.10;;;6.50;99.90;;;;;;5011105;28;20072;-58
2023/11/19 09:40:47;;;;;;;5.35;3.65;;;6.60;99.90;;;;;;5013064;28;20033;-59
2023/11/19 09:43:15;;;;;;;7.22;4.95;;;6.60;99.90;;;;;;5008984;28;20536;-58
2023/11/19 09:45:50;;;;;;;13.70;6.30;;;6.70;99.90;;;;;;5015986;28;20030;-59
2023/11/19 09:48:17;;;;;;;;;;;6.80;99.90;;;;;;5011292;28;20167;-59
2023/11/19 09:50:43;;;;;;;9.57;5.10;;;6.90;99.90;;;;;;5010637;28;19924;-59
2023/11/19 09:53:08;;;;;;;7.65;5.03;;;7.10;99.90;;;;;;5010509;28;20026;-59
2023/11/19 09:55:34;;;;;;;10.55;6.60;;;7.30;99.90;;;;;;5017382;28;20049;-60
2023/11/19 09:58:01;;;;;;;8.50;5.68;;;7.50;99.90;;;;;;5012472;28;20110;-60
2023/11/19 10:00:27;;;;;;;7.75;6.00;;;7.60;99.90;;;;;;5011950;28;20057;-58
2023/11/19 10:02:54;;;;;;;6.63;4.78;;;7.70;99.90;;;;;;5009262;28;20030;-60
2023/11/19 10:05:21;;;;;;;6.88;4.55;;;7.90;99.90;;;;;;5015275;28;20099;-60
2023/11/19 10:07:47;;;;;;;9.02;4.28;;;8.00;99.90;;;;;;5005958;28;20029;-60
2023/11/19 10:10:18;;;;;;;5.82;3.67;;;8.10;99.90;;;;;;5012385;28;20029;-60
2023/11/19 10:12:44;;;;;;;8.63;3.85;;;8.20;99.90;;;;;;5020699;28;20080;-60
2023/11/19 10:15:19;;;;;;;6.53;3.38;;;8.30;99.90;;;;;;5008096;28;20562;-60
2023/11/19 10:17:44;;;;;;;4.13;3.28;;;8.40;99.90;;;;;;5014339;28;20028;-60
2023/11/19 10:20:10;;;;;;;5.88;3.90;;;8.60;99.90;;;;;;5018785;28;20116;-59
2023/11/19 10:22:39;;;;;;;7.43;4.18;;;8.70;99.90;;;;;;5007711;28;20048;-59
2023/11/19 10:25:28;;;;;;;6.63;4.22;;;8.70;99.90;;;;;;5012116;28;20044;-60
2023/11/19 10:27:55;;;;;;;13.57;9.15;;;8.70;99.90;;;;;;5014051;28;20040;-59
2023/11/19 10:30:26;;;;;;;15.75;12.93;;;8.80;99.90;;;;;;5010707;28;20026;-59
2023/11/19 10:33:07;;;;;;;7.88;6.57;;;8.80;99.90;;;;;;5010049;28;20080;-60
2023/11/19 10:35:54;;;;;;;10.10;5.63;;;8.90;99.90;;;;;;5007940;28;20037;-60
2023/11/19 10:38:20;;;;;;;5.53;4.45;;;9.00;99.90;;;;;;5010387;28;20108;-59
2023/11/19 10:40:46;;;;;;;7.90;4.57;;;9.00;99.90;;;;;;5011192;28;20038;-60
2023/11/19 10:43:12;;;;;;;4.63;3.42;;;9.20;99.90;;;;;;5012845;28;20029;-59
2023/11/19 10:45:38;;;;;;;6.28;3.65;;;9.30;99.90;;;;;;5013389;28;20105;-60
2023/11/19 10:48:08;;;;;;;5.07;3.28;;;9.50;99.90;;;;;;5007403;28;20032;-59
2023/11/19 10:50:35;;;;;;;5.43;3.47;;;9.60;99.90;;;;;;5011664;28;20037;-60
2023/11/19 10:53:03;;;;;;;4.63;2.95;;;9.80;99.90;;;;;;5015726;28;20039;-60
2023/11/19 10:55:34;;;;;;;3.22;2.78;;;10.00;99.90;;;;;;5014467;28;20080;-60
2023/11/19 10:58:03;;;;;;;4.13;2.92;;;10.20;99.90;;;;;;5013382;28;20030;-60
2023/11/19 11:00:50;;;;;;;5.40;2.90;;;10.20;99.90;;;;;;5012466;28;20480;-60
2023/11/19 11:03:22;;;;;;;4.03;2.20;;;10.20;99.90;;;;;;5016627;28;20032;-59
2023/11/19 11:05:49;;;;;;;3.03;2.67;;;10.20;99.90;;;;;;5007996;28;20030;-60
2023/11/19 11:08:15;;;;;;;4.47;3.15;;;10.30;99.90;;;;;;5009962;28;20139;-58
2023/11/19 11:10:52;;;;;;;4.90;2.53;;;10.40;99.90;;;;;;5003981;28;20418;-60
2023/11/19 11:13:18;;;;;;;2.72;2.30;;;10.40;99.90;;;;;;5015847;28;20117;-59
2023/11/19 11:15:46;;;;;;;2.92;2.22;;;10.40;99.90;;;;;;5013659;28;20061;-59
2023/11/19 11:18:13;;;;;;;3.53;2.17;;;10.50;99.90;;;;;;5015295;28;20025;-59
2023/11/19 11:20:39;;;;;;;5.00;2.22;;;10.50;99.90;;;;;;5022745;28;20029;-59
2023/11/19 11:23:37;;;;;;;6.38;2.60;;;10.60;99.90;;;;;;5021510;28;20045;-58
2023/11/19 11:26:32;;;;;;;4.82;2.45;;;10.50;99.90;;;;;;5013078;28;20057;-59
2023/11/19 11:29:24;;;;;;;7.28;2.80;;;10.60;99.90;;;;;;5015085;28;20035;-60
2023/11/19 11:32:27;;;;;;;6.57;2.58;;;10.80;99.90;;;;;;5013882;28;20045;-58
2023/11/19 11:35:23;;;;;;;4.20;2.28;;;11.00;99.90;;;;;;5004143;28;20030;-59
2023/11/19 11:38:00;;;;;;;11.43;2.47;;;11.20;99.90;;;;;;5006422;28;20419;-61
2023/11/19 11:40:26;;;;;;;9.85;3.33;;;11.20;99.90;;;;;;5006543;28;20365;-60
2023/11/19 11:42:52;;;;;;;8.68;2.40;;;11.30;99.90;;;;;;5020838;28;20073;-61
2023/11/19 11:45:20;;;;;;;9.77;2.80;;;11.30;99.90;;;;;;5017160;28;20526;-59
2023/11/19 11:47:54;;;;;;;8.57;2.63;;;11.30;99.90;;;;;;5016478;28;20075;-60
2023/11/19 11:50:20;;;;;;;12.40;2.83;;;11.40;99.90;;;;;;5017296;28;20037;-60
2023/11/19 11:52:58;;;;;;;5.60;2.38;;;11.50;99.90;;;;;;5015237;28;20021;-60
2023/11/19 11:55:52;;;;;;;9.65;2.67;;;11.70;99.90;;;;;;5008165;28;20041;-60
2023/11/19 11:58:30;;;;;;;10.65;2.60;;;11.80;99.90;;;;;;5008950;28;20486;-60
2023/11/19 12:00:57;;;;;;;9.48;2.30;;;11.90;99.90;;;;;;5020918;28;20051;-60
2023/11/19 12:03:23;;;;;;;11.05;3.03;;;11.90;99.90;;;;;;5010454;28;20029;-62
2023/11/19 12:05:49;;;;;;;10.43;3.17;;;11.90;99.90;;;;;;5005973;28;20041;-60
2023/11/19 12:08:20;;;;;;;10.30;3.38;;;11.90;99.90;;;;;;5005106;28;20022;-60
2023/11/19 12:10:48;;;;;;;11.70;2.80;;;12.00;99.90;;;;;;5016622;28;20028;-60
2023/11/19 12:13:15;;;;;;;7.82;2.90;;;12.00;99.90;;;;;;5009611;28;20117;-60
2023/11/19 12:15:56;;;;;;;9.70;3.10;;;12.10;99.90;;;;;;5012504;28;20048;-60
2023/11/19 12:18:27;;;;;;;11.48;3.58;;;12.20;99.90;;;;;;5017170;28;20774;-60
2023/11/19 12:20:53;;;;;;;9.77;4.13;;;12.30;99.90;;;;;;5026226;28;20044;-60
2023/11/19 12:23:18;;;;;;;12.40;2.63;;;12.30;99.90;;;;;;5011186;28;20033;-61
2023/11/19 12:25:45;;;;;;;9.68;2.75;;;12.30;99.90;;;;;;5011494;28;20109;-59
2023/11/19 12:28:17;;;;;;;10.15;3.63;;;12.20;99.90;;;;;;5010331;28;20100;-59
2023/11/19 12:30:43;;;;;;;12.00;3.80;;;12.20;99.90;;;;;;5008054;28;20025;-59
2023/11/19 12:33:09;;;;;;;8.23;3.42;;;12.10;99.90;;;;;;5011204;28;20485;-59
2023/11/19 12:35:48;;;;;;;8.95;3.20;;;12.10;99.90;;;;;;5010388;28;20095;-58
2023/11/19 12:38:24;;;;;;;12.05;4.05;;;12.10;99.90;;;;;;5006052;28;20038;-60
2023/11/19 12:41:06;;;;;;;11.98;3.92;;;12.10;99.90;;;;;;5013784;28;20045;-59
2023/11/19 12:43:34;;;;;;;16.00;3.80;;;12.00;99.90;;;;;;5022880;28;20030;-61
2023/11/19 12:45:59;;;;;;;12.63;4.75;;;12.00;99.90;;;;;;5018457;28;20029;-60
2023/11/19 12:48:25;;;;;;;12.98;3.13;;;12.00;99.90;;;;;;5011172;28;20022;-60
2023/11/19 12:50:55;;;;;;;15.02;4.10;;;12.10;99.90;;;;;;5018074;28;20028;-60
2023/11/19 12:53:22;;;;;;;12.52;3.83;;;12.00;99.90;;;;;;5006781;28;20038;-60